sensor_id;sensor_type;location;lat;lon;timestamp;P1;durP1;ratioP1;P2;durP2;ratioP2
9420;SDS011;4749;51.398;5.466;2023-07-30T00:02:23;5.85;;;2.30;;
9420;SDS011;4749;51.398;5.466;2023-07-30T00:04:50;10.13;;;2.95;;
9420;SDS011;4749;51.398;5.466;2023-07-30T00:07:17;7.38;;;2.40;;
9420;SDS011;4749;51.398;5.466;2023-07-30T00:09:45;9.07;;;2.20;;
9420;SDS011;4749;51.398;5.466;2023-07-30T00:12:12;5.28;;;2.60;;
9420;SDS011;4749;51.398;5.466;2023-07-30T00:14:39;6.32;;;2.30;;
9420;SDS011;4749;51.398;5.466;2023-07-30T00:17:06;7.28;;;2.50;;
9420;SDS011;4749;51.398;5.466;2023-07-30T00:19:33;5.03;;;2.10;;
9420;SDS011;4749;51.398;5.466;2023-07-30T00:22:01;5.55;;;2.53;;
9420;SDS011;4749;51.398;5.466;2023-07-30T00:24:28;6.55;;;2.47;;
9420;SDS011;4749;51.398;5.466;2023-07-30T00:26:56;8.35;;;2.55;;
9420;SDS011;4749;51.398;5.466;2023-07-30T00:29:23;11.27;;;2.60;;
9420;SDS011;4749;51.398;5.466;2023-07-30T00:34:35;9.38;;;2.85;;
9420;SDS011;4749;51.398;5.466;2023-07-30T00:37:02;4.25;;;2.80;;
9420;SDS011;4749;51.398;5.466;2023-07-30T00:39:30;6.80;;;2.90;;
9420;SDS011;4749;51.398;5.466;2023-07-30T00:41:57;12.82;;;2.53;;
9420;SDS011;4749;51.398;5.466;2023-07-30T00:44:24;6.63;;;2.35;;
9420;SDS011;4749;51.398;5.466;2023-07-30T00:46:52;5.68;;;2.50;;
9420;SDS011;4749;51.398;5.466;2023-07-30T00:49:19;5.25;;;2.42;;
9420;SDS011;4749;51.398;5.466;2023-07-30T00:51:46;5.22;;;2.67;;
9420;SDS011;4749;51.398;5.466;2023-07-30T00:54:13;7.22;;;2.33;;
9420;SDS011;4749;51.398;5.466;2023-07-30T00:56:41;6.00;;;2.00;;
9420;SDS011;4749;51.398;5.466;2023-07-30T00:59:19;10.82;;;2.47;;
9420;SDS011;4749;51.398;5.466;2023-07-30T01:01:47;7.25;;;2.42;;
9420;SDS011;4749;51.398;5.466;2023-07-30T01:04:17;10.40;;;2.55;;
9420;SDS011;4749;51.398;5.466;2023-07-30T01:06:44;9.63;;;2.80;;
9420;SDS011;4749;51.398;5.466;2023-07-30T01:09:12;8.40;;;2.28;;
9420;SDS011;4749;51.398;5.466;2023-07-30T01:11:40;6.75;;;2.63;;
9420;SDS011;4749;51.398;5.466;2023-07-30T01:14:09;5.05;;;2.30;;
9420;SDS011;4749;51.398;5.466;2023-07-30T01:16:37;7.43;;;2.60;;
9420;SDS011;4749;51.398;5.466;2023-07-30T01:19:04;9.88;;;2.67;;
9420;SDS011;4749;51.398;5.466;2023-07-30T01:21:33;7.47;;;2.40;;
9420;SDS011;4749;51.398;5.466;2023-07-30T01:24:03;5.65;;;2.60;;
9420;SDS011;4749;51.398;5.466;2023-07-30T01:26:32;8.88;;;2.17;;
9420;SDS011;4749;51.398;5.466;2023-07-30T01:29:21;9.30;;;2.30;;
9420;SDS011;4749;51.398;5.466;2023-07-30T01:31:57;7.93;;;2.85;;
9420;SDS011;4749;51.398;5.466;2023-07-30T01:34:34;9.13;;;2.22;;
9420;SDS011;4749;51.398;5.466;2023-07-30T01:37:03;9.77;;;2.60;;
9420;SDS011;4749;51.398;5.466;2023-07-30T01:39:35;15.15;;;2.75;;
9420;SDS011;4749;51.398;5.466;2023-07-30T01:42:04;7.72;;;2.30;;
9420;SDS011;4749;51.398;5.466;2023-07-30T01:44:31;7.68;;;2.40;;
9420;SDS011;4749;51.398;5.466;2023-07-30T01:46:58;9.55;;;2.17;;
9420;SDS011;4749;51.398;5.466;2023-07-30T01:49:25;7.93;;;2.58;;
9420;SDS011;4749;51.398;5.466;2023-07-30T01:51:53;8.32;;;2.90;;
9420;SDS011;4749;51.398;5.466;2023-07-30T01:54:20;6.40;;;2.47;;
9420;SDS011;4749;51.398;5.466;2023-07-30T01:56:47;8.82;;;2.55;;
9420;SDS011;4749;51.398;5.466;2023-07-30T01:59:14;7.70;;;3.00;;
9420;SDS011;4749;51.398;5.466;2023-07-30T02:01:41;8.80;;;2.95;;
9420;SDS011;4749;51.398;5.466;2023-07-30T02:04:10;8.60;;;2.25;;
9420;SDS011;4749;51.398;5.466;2023-07-30T02:06:37;8.90;;;2.85;;
9420;SDS011;4749;51.398;5.466;2023-07-30T02:09:04;10.27;;;2.97;;
9420;SDS011;4749;51.398;5.466;2023-07-30T02:11:31;10.88;;;2.88;;
9420;SDS011;4749;51.398;5.466;2023-07-30T02:13:58;11.45;;;3.03;;
9420;SDS011;4749;51.398;5.466;2023-07-30T02:16:25;11.65;;;2.60;;
9420;SDS011;4749;51.398;5.466;2023-07-30T02:18:52;11.00;;;2.88;;
9420;SDS011;4749;51.398;5.466;2023-07-30T02:21:19;10.00;;;2.70;;
9420;SDS011;4749;51.398;5.466;2023-07-30T02:23:46;10.35;;;3.50;;
9420;SDS011;4749;51.398;5.466;2023-07-30T02:26:13;11.43;;;2.90;;
9420;SDS011;4749;51.398;5.466;2023-07-30T02:28:40;8.32;;;2.78;;
9420;SDS011;4749;51.398;5.466;2023-07-30T02:31:08;9.77;;;3.30;;
9420;SDS011;4749;51.398;5.466;2023-07-30T02:33:35;12.27;;;2.90;;
9420;SDS011;4749;51.398;5.466;2023-07-30T02:36:02;8.85;;;2.70;;
9420;SDS011;4749;51.398;5.466;2023-07-30T02:38:30;9.15;;;3.60;;
9420;SDS011;4749;51.398;5.466;2023-07-30T02:40:57;12.13;;;2.95;;
9420;SDS011;4749;51.398;5.466;2023-07-30T02:43:24;10.25;;;2.92;;
9420;SDS011;4749;51.398;5.466;2023-07-30T02:45:51;8.95;;;2.58;;
9420;SDS011;4749;51.398;5.466;2023-07-30T02:48:18;9.00;;;3.20;;
9420;SDS011;4749;51.398;5.466;2023-07-30T02:50:46;10.63;;;2.65;;
9420;SDS011;4749;51.398;5.466;2023-07-30T02:53:13;10.30;;;2.60;;
9420;SDS011;4749;51.398;5.466;2023-07-30T02:55:40;10.00;;;2.70;;
9420;SDS011;4749;51.398;5.466;2023-07-30T02:58:07;13.70;;;3.20;;
9420;SDS011;4749;51.398;5.466;2023-07-30T03:00:34;9.30;;;2.53;;
9420;SDS011;4749;51.398;5.466;2023-07-30T03:03:01;11.88;;;3.08;;
9420;SDS011;4749;51.398;5.466;2023-07-30T03:05:28;11.45;;;2.88;;
9420;SDS011;4749;51.398;5.466;2023-07-30T03:07:56;12.50;;;2.75;;
9420;SDS011;4749;51.398;5.466;2023-07-30T03:10:23;9.68;;;2.67;;
9420;SDS011;4749;51.398;5.466;2023-07-30T03:12:50;9.23;;;2.53;;
9420;SDS011;4749;51.398;5.466;2023-07-30T03:15:17;10.07;;;3.30;;
9420;SDS011;4749;51.398;5.466;2023-07-30T03:17:44;10.55;;;2.92;;
9420;SDS011;4749;51.398;5.466;2023-07-30T03:20:11;9.85;;;2.63;;
9420;SDS011;4749;51.398;5.466;2023-07-30T03:22:39;9.63;;;3.55;;
9420;SDS011;4749;51.398;5.466;2023-07-30T03:25:06;10.40;;;2.70;;
9420;SDS011;4749;51.398;5.466;2023-07-30T03:27:33;7.40;;;2.50;;
9420;SDS011;4749;51.398;5.466;2023-07-30T03:30:01;11.45;;;3.15;;
9420;SDS011;4749;51.398;5.466;2023-07-30T03:32:28;9.60;;;2.50;;
9420;SDS011;4749;51.398;5.466;2023-07-30T03:34:55;12.65;;;3.42;;
9420;SDS011;4749;51.398;5.466;2023-07-30T03:37:22;14.25;;;2.45;;
9420;SDS011;4749;51.398;5.466;2023-07-30T03:39:49;6.65;;;2.45;;
9420;SDS011;4749;51.398;5.466;2023-07-30T03:42:16;8.57;;;3.20;;
9420;SDS011;4749;51.398;5.466;2023-07-30T03:44:43;12.48;;;3.03;;
9420;SDS011;4749;51.398;5.466;2023-07-30T03:47:10;13.27;;;2.88;;
9420;SDS011;4749;51.398;5.466;2023-07-30T03:49:37;12.68;;;3.00;;
9420;SDS011;4749;51.398;5.466;2023-07-30T03:52:05;14.20;;;3.00;;
9420;SDS011;4749;51.398;5.466;2023-07-30T03:54:32;15.85;;;3.22;;
9420;SDS011;4749;51.398;5.466;2023-07-30T03:56:59;12.10;;;3.70;;
9420;SDS011;4749;51.398;5.466;2023-07-30T03:59:26;22.33;;;3.88;;
9420;SDS011;4749;51.398;5.466;2023-07-30T04:01:54;11.07;;;3.65;;
9420;SDS011;4749;51.398;5.466;2023-07-30T04:04:22;12.25;;;3.45;;
9420;SDS011;4749;51.398;5.466;2023-07-30T04:06:49;13.10;;;3.47;;
9420;SDS011;4749;51.398;5.466;2023-07-30T04:09:16;14.88;;;3.97;;
9420;SDS011;4749;51.398;5.466;2023-07-30T04:11:43;16.02;;;4.10;;
9420;SDS011;4749;51.398;5.466;2023-07-30T04:14:10;11.13;;;3.28;;
9420;SDS011;4749;51.398;5.466;2023-07-30T04:16:38;16.20;;;4.13;;
9420;SDS011;4749;51.398;5.466;2023-07-30T04:19:05;16.48;;;4.40;;
9420;SDS011;4749;51.398;5.466;2023-07-30T04:21:32;13.10;;;4.32;;
9420;SDS011;4749;51.398;5.466;2023-07-30T04:23:59;18.83;;;4.50;;
9420;SDS011;4749;51.398;5.466;2023-07-30T04:26:26;11.10;;;3.65;;
9420;SDS011;4749;51.398;5.466;2023-07-30T04:28:53;14.05;;;3.35;;
9420;SDS011;4749;51.398;5.466;2023-07-30T04:31:20;11.63;;;3.75;;
9420;SDS011;4749;51.398;5.466;2023-07-30T04:33:48;13.77;;;4.25;;
9420;SDS011;4749;51.398;5.466;2023-07-30T04:36:15;12.30;;;3.65;;
9420;SDS011;4749;51.398;5.466;2023-07-30T04:38:42;13.43;;;3.70;;
9420;SDS011;4749;51.398;5.466;2023-07-30T04:41:09;16.23;;;3.92;;
9420;SDS011;4749;51.398;5.466;2023-07-30T04:43:36;13.27;;;3.92;;
9420;SDS011;4749;51.398;5.466;2023-07-30T04:46:03;16.30;;;3.88;;
9420;SDS011;4749;51.398;5.466;2023-07-30T04:48:30;16.50;;;3.95;;
9420;SDS011;4749;51.398;5.466;2023-07-30T04:50:57;18.23;;;4.15;;
9420;SDS011;4749;51.398;5.466;2023-07-30T04:53:24;17.98;;;4.05;;
9420;SDS011;4749;51.398;5.466;2023-07-30T04:55:55;11.95;;;3.55;;
9420;SDS011;4749;51.398;5.466;2023-07-30T04:58:26;14.60;;;3.80;;
9420;SDS011;4749;51.398;5.466;2023-07-30T05:00:53;11.93;;;3.10;;
9420;SDS011;4749;51.398;5.466;2023-07-30T05:03:20;14.88;;;4.40;;
9420;SDS011;4749;51.398;5.466;2023-07-30T05:05:47;11.95;;;4.25;;
9420;SDS011;4749;51.398;5.466;2023-07-30T05:08:14;17.50;;;3.95;;
9420;SDS011;4749;51.398;5.466;2023-07-30T05:10:41;13.63;;;3.53;;
9420;SDS011;4749;51.398;5.466;2023-07-30T05:13:08;13.68;;;2.80;;
9420;SDS011;4749;51.398;5.466;2023-07-30T05:15:35;13.65;;;3.42;;
9420;SDS011;4749;51.398;5.466;2023-07-30T05:18:02;15.65;;;3.03;;
9420;SDS011;4749;51.398;5.466;2023-07-30T05:20:30;15.68;;;4.03;;
9420;SDS011;4749;51.398;5.466;2023-07-30T05:22:57;14.52;;;3.65;;
9420;SDS011;4749;51.398;5.466;2023-07-30T05:25:24;18.38;;;4.38;;
9420;SDS011;4749;51.398;5.466;2023-07-30T05:27:51;16.05;;;3.47;;
9420;SDS011;4749;51.398;5.466;2023-07-30T05:30:18;13.98;;;3.67;;
9420;SDS011;4749;51.398;5.466;2023-07-30T05:32:45;11.40;;;3.50;;
9420;SDS011;4749;51.398;5.466;2023-07-30T05:35:12;15.55;;;3.58;;
9420;SDS011;4749;51.398;5.466;2023-07-30T05:37:39;18.20;;;3.58;;
9420;SDS011;4749;51.398;5.466;2023-07-30T05:40:07;15.88;;;3.58;;
9420;SDS011;4749;51.398;5.466;2023-07-30T05:42:34;16.00;;;3.90;;
9420;SDS011;4749;51.398;5.466;2023-07-30T05:45:01;13.98;;;3.22;;
9420;SDS011;4749;51.398;5.466;2023-07-30T05:47:28;15.45;;;3.03;;
9420;SDS011;4749;51.398;5.466;2023-07-30T05:49:55;21.15;;;4.03;;
9420;SDS011;4749;51.398;5.466;2023-07-30T05:52:22;11.27;;;3.03;;
9420;SDS011;4749;51.398;5.466;2023-07-30T05:54:49;15.68;;;3.83;;
9420;SDS011;4749;51.398;5.466;2023-07-30T05:57:17;16.83;;;3.55;;
9420;SDS011;4749;51.398;5.466;2023-07-30T05:59:44;15.15;;;3.40;;
9420;SDS011;4749;51.398;5.466;2023-07-30T06:02:11;12.27;;;3.70;;
9420;SDS011;4749;51.398;5.466;2023-07-30T06:04:38;20.58;;;4.18;;
9420;SDS011;4749;51.398;5.466;2023-07-30T06:07:05;13.60;;;3.47;;
9420;SDS011;4749;51.398;5.466;2023-07-30T06:09:32;13.38;;;3.95;;
9420;SDS011;4749;51.398;5.466;2023-07-30T06:11:59;16.08;;;4.35;;
9420;SDS011;4749;51.398;5.466;2023-07-30T06:14:26;21.85;;;4.72;;
9420;SDS011;4749;51.398;5.466;2023-07-30T06:16:54;17.33;;;4.43;;
9420;SDS011;4749;51.398;5.466;2023-07-30T06:19:21;18.92;;;4.50;;
9420;SDS011;4749;51.398;5.466;2023-07-30T06:21:48;18.42;;;4.38;;
9420;SDS011;4749;51.398;5.466;2023-07-30T06:24:15;17.15;;;4.22;;
9420;SDS011;4749;51.398;5.466;2023-07-30T06:26:42;16.75;;;3.85;;
9420;SDS011;4749;51.398;5.466;2023-07-30T06:29:10;14.70;;;3.55;;
9420;SDS011;4749;51.398;5.466;2023-07-30T06:31:37;16.92;;;3.95;;
9420;SDS011;4749;51.398;5.466;2023-07-30T06:34:04;20.27;;;5.07;;
9420;SDS011;4749;51.398;5.466;2023-07-30T06:36:32;18.10;;;3.85;;
9420;SDS011;4749;51.398;5.466;2023-07-30T06:38:59;18.25;;;3.47;;
9420;SDS011;4749;51.398;5.466;2023-07-30T06:41:27;17.20;;;3.75;;
9420;SDS011;4749;51.398;5.466;2023-07-30T06:43:55;14.13;;;3.03;;
9420;SDS011;4749;51.398;5.466;2023-07-30T06:46:22;19.33;;;3.25;;
9420;SDS011;4749;51.398;5.466;2023-07-30T06:48:49;13.45;;;3.70;;
9420;SDS011;4749;51.398;5.466;2023-07-30T06:51:18;13.95;;;3.45;;
9420;SDS011;4749;51.398;5.466;2023-07-30T06:53:46;14.57;;;3.05;;
9420;SDS011;4749;51.398;5.466;2023-07-30T06:56:14;14.10;;;3.55;;
9420;SDS011;4749;51.398;5.466;2023-07-30T06:58:41;12.18;;;2.58;;
9420;SDS011;4749;51.398;5.466;2023-07-30T07:01:08;20.25;;;3.78;;
9420;SDS011;4749;51.398;5.466;2023-07-30T07:03:35;13.38;;;3.28;;
9420;SDS011;4749;51.398;5.466;2023-07-30T07:06:02;15.65;;;4.05;;
9420;SDS011;4749;51.398;5.466;2023-07-30T07:08:30;16.08;;;3.50;;
9420;SDS011;4749;51.398;5.466;2023-07-30T07:10:57;21.17;;;2.83;;
9420;SDS011;4749;51.398;5.466;2023-07-30T07:13:24;13.95;;;3.17;;
9420;SDS011;4749;51.398;5.466;2023-07-30T07:15:51;15.77;;;2.83;;
9420;SDS011;4749;51.398;5.466;2023-07-30T07:18:18;15.02;;;3.10;;
9420;SDS011;4749;51.398;5.466;2023-07-30T07:20:46;13.25;;;3.13;;
9420;SDS011;4749;51.398;5.466;2023-07-30T07:23:13;15.15;;;3.50;;
9420;SDS011;4749;51.398;5.466;2023-07-30T07:25:40;19.60;;;3.60;;
9420;SDS011;4749;51.398;5.466;2023-07-30T07:28:07;15.73;;;2.97;;
9420;SDS011;4749;51.398;5.466;2023-07-30T07:30:35;18.67;;;3.25;;
9420;SDS011;4749;51.398;5.466;2023-07-30T07:33:07;12.73;;;2.85;;
9420;SDS011;4749;51.398;5.466;2023-07-30T07:35:39;17.17;;;3.20;;
9420;SDS011;4749;51.398;5.466;2023-07-30T07:38:06;18.80;;;2.97;;
9420;SDS011;4749;51.398;5.466;2023-07-30T07:40:37;22.83;;;3.90;;
9420;SDS011;4749;51.398;5.466;2023-07-30T07:43:08;15.23;;;2.95;;
9420;SDS011;4749;51.398;5.466;2023-07-30T07:45:35;9.95;;;2.60;;
9420;SDS011;4749;51.398;5.466;2023-07-30T07:48:02;17.90;;;3.30;;
9420;SDS011;4749;51.398;5.466;2023-07-30T07:50:30;12.90;;;2.80;;
9420;SDS011;4749;51.398;5.466;2023-07-30T07:52:57;17.38;;;2.88;;
9420;SDS011;4749;51.398;5.466;2023-07-30T07:55:24;14.95;;;2.63;;
9420;SDS011;4749;51.398;5.466;2023-07-30T07:57:51;18.83;;;3.30;;
9420;SDS011;4749;51.398;5.466;2023-07-30T08:00:18;16.25;;;3.13;;
9420;SDS011;4749;51.398;5.466;2023-07-30T08:02:45;18.45;;;3.58;;
9420;SDS011;4749;51.398;5.466;2023-07-30T08:05:16;14.10;;;2.78;;
9420;SDS011;4749;51.398;5.466;2023-07-30T08:07:46;13.93;;;2.78;;
9420;SDS011;4749;51.398;5.466;2023-07-30T08:10:13;12.40;;;2.33;;
9420;SDS011;4749;51.398;5.466;2023-07-30T08:12:41;12.32;;;2.58;;
9420;SDS011;4749;51.398;5.466;2023-07-30T08:15:08;11.50;;;2.72;;
9420;SDS011;4749;51.398;5.466;2023-07-30T08:17:36;13.07;;;3.00;;
9420;SDS011;4749;51.398;5.466;2023-07-30T08:20:03;16.17;;;3.08;;
9420;SDS011;4749;51.398;5.466;2023-07-30T08:22:31;10.68;;;3.58;;
9420;SDS011;4749;51.398;5.466;2023-07-30T08:24:58;11.80;;;2.65;;
9420;SDS011;4749;51.398;5.466;2023-07-30T08:27:25;13.10;;;2.60;;
9420;SDS011;4749;51.398;5.466;2023-07-30T08:29:52;12.07;;;2.50;;
9420;SDS011;4749;51.398;5.466;2023-07-30T08:32:20;11.55;;;2.50;;
9420;SDS011;4749;51.398;5.466;2023-07-30T08:34:47;11.25;;;2.50;;
9420;SDS011;4749;51.398;5.466;2023-07-30T08:37:15;11.07;;;2.45;;
9420;SDS011;4749;51.398;5.466;2023-07-30T08:39:42;14.40;;;2.80;;
9420;SDS011;4749;51.398;5.466;2023-07-30T08:42:09;17.70;;;2.55;;
9420;SDS011;4749;51.398;5.466;2023-07-30T08:44:36;10.70;;;2.80;;
9420;SDS011;4749;51.398;5.466;2023-07-30T08:47:03;12.05;;;2.60;;
9420;SDS011;4749;51.398;5.466;2023-07-30T08:49:30;13.40;;;3.22;;
9420;SDS011;4749;51.398;5.466;2023-07-30T08:51:59;11.10;;;2.13;;
9420;SDS011;4749;51.398;5.466;2023-07-30T08:54:29;14.43;;;2.67;;
9420;SDS011;4749;51.398;5.466;2023-07-30T08:56:58;17.55;;;2.65;;
9420;SDS011;4749;51.398;5.466;2023-07-30T08:59:25;11.85;;;2.97;;
9420;SDS011;4749;51.398;5.466;2023-07-30T09:01:57;13.93;;;2.80;;
9420;SDS011;4749;51.398;5.466;2023-07-30T09:04:26;15.90;;;2.95;;
9420;SDS011;4749;51.398;5.466;2023-07-30T09:07:00;9.65;;;1.90;;
9420;SDS011;4749;51.398;5.466;2023-07-30T09:09:27;10.85;;;2.63;;
9420;SDS011;4749;51.398;5.466;2023-07-30T09:11:54;17.35;;;3.00;;
9420;SDS011;4749;51.398;5.466;2023-07-30T09:14:22;9.50;;;2.00;;
9420;SDS011;4749;51.398;5.466;2023-07-30T09:16:53;11.40;;;2.75;;
9420;SDS011;4749;51.398;5.466;2023-07-30T09:19:24;11.65;;;2.55;;
9420;SDS011;4749;51.398;5.466;2023-07-30T09:21:51;11.02;;;2.45;;
9420;SDS011;4749;51.398;5.466;2023-07-30T09:24:22;8.90;;;1.90;;
9420;SDS011;4749;51.398;5.466;2023-07-30T09:26:49;8.18;;;2.42;;
9420;SDS011;4749;51.398;5.466;2023-07-30T09:29:16;12.50;;;2.25;;
9420;SDS011;4749;51.398;5.466;2023-07-30T09:31:47;8.60;;;2.58;;
9420;SDS011;4749;51.398;5.466;2023-07-30T09:34:18;9.18;;;2.00;;
9420;SDS011;4749;51.398;5.466;2023-07-30T09:36:46;10.88;;;2.33;;
9420;SDS011;4749;51.398;5.466;2023-07-30T09:39:24;11.50;;;2.75;;
9420;SDS011;4749;51.398;5.466;2023-07-30T09:42:00;11.18;;;2.33;;
9420;SDS011;4749;51.398;5.466;2023-07-30T09:44:27;10.73;;;1.98;;
9420;SDS011;4749;51.398;5.466;2023-07-30T09:46:54;9.60;;;2.28;;
9420;SDS011;4749;51.398;5.466;2023-07-30T09:49:21;7.70;;;1.90;;
9420;SDS011;4749;51.398;5.466;2023-07-30T09:51:51;6.85;;;1.85;;
9420;SDS011;4749;51.398;5.466;2023-07-30T09:54:19;9.88;;;1.90;;
9420;SDS011;4749;51.398;5.466;2023-07-30T09:56:47;8.55;;;2.15;;
9420;SDS011;4749;51.398;5.466;2023-07-30T09:59:14;10.00;;;2.30;;
9420;SDS011;4749;51.398;5.466;2023-07-30T10:01:43;9.27;;;2.40;;
9420;SDS011;4749;51.398;5.466;2023-07-30T10:04:16;11.23;;;2.05;;
9420;SDS011;4749;51.398;5.466;2023-07-30T10:07:01;8.82;;;1.85;;
9420;SDS011;4749;51.398;5.466;2023-07-30T10:09:34;9.82;;;2.00;;
9420;SDS011;4749;51.398;5.466;2023-07-30T10:12:10;8.55;;;2.10;;
9420;SDS011;4749;51.398;5.466;2023-07-30T10:14:42;6.97;;;1.80;;
9420;SDS011;4749;51.398;5.466;2023-07-30T10:17:10;9.40;;;1.90;;
9420;SDS011;4749;51.398;5.466;2023-07-30T10:19:38;5.68;;;1.60;;
9420;SDS011;4749;51.398;5.466;2023-07-30T10:25:00;5.93;;;1.30;;
9420;SDS011;4749;51.398;5.466;2023-07-30T10:27:40;8.52;;;1.60;;
9420;SDS011;4749;51.398;5.466;2023-07-30T10:30:16;7.68;;;1.58;;
9420;SDS011;4749;51.398;5.466;2023-07-30T10:40:59;8.20;;;1.60;;
9420;SDS011;4749;51.398;5.466;2023-07-30T10:43:46;4.53;;;1.20;;
9420;SDS011;4749;51.398;5.466;2023-07-30T10:46:17;4.30;;;1.27;;
9420;SDS011;4749;51.398;5.466;2023-07-30T10:48:59;4.97;;;1.17;;
9420;SDS011;4749;51.398;5.466;2023-07-30T10:51:26;8.00;;;1.58;;
9420;SDS011;4749;51.398;5.466;2023-07-30T10:53:56;4.15;;;1.10;;
9420;SDS011;4749;51.398;5.466;2023-07-30T10:56:23;4.03;;;1.05;;
9420;SDS011;4749;51.398;5.466;2023-07-30T10:58:51;4.25;;;1.50;;
9420;SDS011;4749;51.398;5.466;2023-07-30T11:01:20;6.72;;;1.42;;
9420;SDS011;4749;51.398;5.466;2023-07-30T11:03:52;7.45;;;1.38;;
9420;SDS011;4749;51.398;5.466;2023-07-30T11:06:23;5.65;;;1.30;;
9420;SDS011;4749;51.398;5.466;2023-07-30T11:08:53;7.47;;;1.80;;
9420;SDS011;4749;51.398;5.466;2023-07-30T11:11:21;4.88;;;1.35;;
9420;SDS011;4749;51.398;5.466;2023-07-30T11:13:51;4.88;;;1.20;;
9420;SDS011;4749;51.398;5.466;2023-07-30T11:16:18;5.78;;;1.33;;
9420;SDS011;4749;51.398;5.466;2023-07-30T11:18:45;3.55;;;1.10;;
9420;SDS011;4749;51.398;5.466;2023-07-30T11:21:14;6.38;;;1.67;;
9420;SDS011;4749;51.398;5.466;2023-07-30T11:23:44;3.85;;;1.02;;
9420;SDS011;4749;51.398;5.466;2023-07-30T11:26:13;6.93;;;1.10;;
9420;SDS011;4749;51.398;5.466;2023-07-30T11:28:43;2.53;;;1.20;;
9420;SDS011;4749;51.398;5.466;2023-07-30T11:31:12;4.68;;;1.15;;
9420;SDS011;4749;51.398;5.466;2023-07-30T11:33:48;3.40;;;1.17;;
9420;SDS011;4749;51.398;5.466;2023-07-30T11:36:21;5.07;;;1.20;;
9420;SDS011;4749;51.398;5.466;2023-07-30T11:38:50;6.05;;;1.23;;
9420;SDS011;4749;51.398;5.466;2023-07-30T11:41:21;3.05;;;1.23;;
9420;SDS011;4749;51.398;5.466;2023-07-30T11:43:51;5.60;;;1.33;;
9420;SDS011;4749;51.398;5.466;2023-07-30T11:46:18;4.68;;;1.13;;
9420;SDS011;4749;51.398;5.466;2023-07-30T11:48:49;5.18;;;1.30;;
9420;SDS011;4749;51.398;5.466;2023-07-30T11:51:19;2.88;;;1.10;;
9420;SDS011;4749;51.398;5.466;2023-07-30T11:53:52;6.20;;;1.20;;
9420;SDS011;4749;51.398;5.466;2023-07-30T11:58:55;4.72;;;1.42;;
9420;SDS011;4749;51.398;5.466;2023-07-30T12:01:25;4.93;;;1.20;;
9420;SDS011;4749;51.398;5.466;2023-07-30T12:03:59;7.53;;;1.88;;
9420;SDS011;4749;51.398;5.466;2023-07-30T12:09:17;7.25;;;1.23;;
9420;SDS011;4749;51.398;5.466;2023-07-30T12:11:52;4.53;;;1.20;;
9420;SDS011;4749;51.398;5.466;2023-07-30T12:14:21;4.85;;;1.30;;
9420;SDS011;4749;51.398;5.466;2023-07-30T12:17:12;4.63;;;1.15;;
9420;SDS011;4749;51.398;5.466;2023-07-30T12:19:40;5.85;;;0.95;;
9420;SDS011;4749;51.398;5.466;2023-07-30T12:22:08;4.10;;;1.35;;
9420;SDS011;4749;51.398;5.466;2023-07-30T12:24:35;5.03;;;1.42;;
9420;SDS011;4749;51.398;5.466;2023-07-30T12:27:02;6.90;;;1.60;;
9420;SDS011;4749;51.398;5.466;2023-07-30T12:29:30;8.82;;;1.88;;
9420;SDS011;4749;51.398;5.466;2023-07-30T12:31:57;4.53;;;1.27;;
9420;SDS011;4749;51.398;5.466;2023-07-30T12:34:29;4.68;;;1.50;;
9420;SDS011;4749;51.398;5.466;2023-07-30T12:36:56;6.75;;;1.40;;
9420;SDS011;4749;51.398;5.466;2023-07-30T12:39:24;6.10;;;1.70;;
9420;SDS011;4749;51.398;5.466;2023-07-30T12:41:51;6.18;;;1.42;;
9420;SDS011;4749;51.398;5.466;2023-07-30T12:44:18;5.38;;;1.33;;
9420;SDS011;4749;51.398;5.466;2023-07-30T12:46:45;5.55;;;1.30;;
9420;SDS011;4749;51.398;5.466;2023-07-30T12:49:12;4.22;;;1.20;;
9420;SDS011;4749;51.398;5.466;2023-07-30T12:51:39;2.90;;;1.05;;
9420;SDS011;4749;51.398;5.466;2023-07-30T12:54:07;4.00;;;1.23;;
9420;SDS011;4749;51.398;5.466;2023-07-30T12:56:34;2.38;;;0.90;;
9420;SDS011;4749;51.398;5.466;2023-07-30T12:59:03;4.10;;;1.10;;
9420;SDS011;4749;51.398;5.466;2023-07-30T13:01:30;2.85;;;1.05;;
9420;SDS011;4749;51.398;5.466;2023-07-30T13:03:57;4.10;;;1.30;;
9420;SDS011;4749;51.398;5.466;2023-07-30T13:06:24;4.18;;;1.38;;
9420;SDS011;4749;51.398;5.466;2023-07-30T13:08:51;6.63;;;1.20;;
9420;SDS011;4749;51.398;5.466;2023-07-30T13:11:20;6.28;;;1.13;;
9420;SDS011;4749;51.398;5.466;2023-07-30T13:13:47;4.60;;;1.10;;
9420;SDS011;4749;51.398;5.466;2023-07-30T13:16:14;5.03;;;1.00;;
9420;SDS011;4749;51.398;5.466;2023-07-30T13:18:41;6.50;;;1.20;;
9420;SDS011;4749;51.398;5.466;2023-07-30T13:21:08;3.30;;;1.10;;
9420;SDS011;4749;51.398;5.466;2023-07-30T13:23:35;4.35;;;0.93;;
9420;SDS011;4749;51.398;5.466;2023-07-30T13:26:02;3.97;;;1.48;;
9420;SDS011;4749;51.398;5.466;2023-07-30T13:28:29;6.07;;;1.15;;
9420;SDS011;4749;51.398;5.466;2023-07-30T13:30:57;4.70;;;1.05;;
9420;SDS011;4749;51.398;5.466;2023-07-30T13:33:24;3.50;;;1.05;;
9420;SDS011;4749;51.398;5.466;2023-07-30T13:35:51;5.80;;;1.25;;
9420;SDS011;4749;51.398;5.466;2023-07-30T13:38:18;4.10;;;0.98;;
9420;SDS011;4749;51.398;5.466;2023-07-30T13:40:48;3.33;;;1.20;;
9420;SDS011;4749;51.398;5.466;2023-07-30T13:43:15;8.23;;;1.13;;
9420;SDS011;4749;51.398;5.466;2023-07-30T13:45:42;5.78;;;1.02;;
9420;SDS011;4749;51.398;5.466;2023-07-30T13:48:09;4.43;;;1.05;;
9420;SDS011;4749;51.398;5.466;2023-07-30T13:50:37;6.10;;;1.00;;
9420;SDS011;4749;51.398;5.466;2023-07-30T13:53:04;3.53;;;0.80;;
9420;SDS011;4749;51.398;5.466;2023-07-30T13:55:31;5.93;;;1.13;;
9420;SDS011;4749;51.398;5.466;2023-07-30T13:57:58;5.40;;;1.10;;
9420;SDS011;4749;51.398;5.466;2023-07-30T14:00:25;5.97;;;1.27;;
9420;SDS011;4749;51.398;5.466;2023-07-30T14:02:52;6.28;;;1.20;;
9420;SDS011;4749;51.398;5.466;2023-07-30T14:05:19;5.22;;;0.80;;
9420;SDS011;4749;51.398;5.466;2023-07-30T14:07:46;3.47;;;1.15;;
9420;SDS011;4749;51.398;5.466;2023-07-30T14:10:14;4.05;;;0.90;;
9420;SDS011;4749;51.398;5.466;2023-07-30T14:12:41;4.53;;;1.10;;
9420;SDS011;4749;51.398;5.466;2023-07-30T14:15:08;4.90;;;1.30;;
9420;SDS011;4749;51.398;5.466;2023-07-30T14:17:36;3.80;;;1.10;;
9420;SDS011;4749;51.398;5.466;2023-07-30T14:20:03;3.35;;;1.08;;
9420;SDS011;4749;51.398;5.466;2023-07-30T14:22:31;4.03;;;1.55;;
9420;SDS011;4749;51.398;5.466;2023-07-30T14:24:58;6.00;;;1.30;;
9420;SDS011;4749;51.398;5.466;2023-07-30T14:27:25;4.65;;;1.00;;
9420;SDS011;4749;51.398;5.466;2023-07-30T14:29:53;3.38;;;0.90;;
9420;SDS011;4749;51.398;5.466;2023-07-30T14:32:20;5.10;;;1.08;;
9420;SDS011;4749;51.398;5.466;2023-07-30T14:34:47;4.85;;;1.00;;
9420;SDS011;4749;51.398;5.466;2023-07-30T14:37:14;4.45;;;1.10;;
9420;SDS011;4749;51.398;5.466;2023-07-30T14:39:42;4.38;;;1.27;;
9420;SDS011;4749;51.398;5.466;2023-07-30T14:42:10;6.68;;;1.10;;
9420;SDS011;4749;51.398;5.466;2023-07-30T14:44:38;4.70;;;1.10;;
9420;SDS011;4749;51.398;5.466;2023-07-30T14:47:05;3.30;;;1.08;;
9420;SDS011;4749;51.398;5.466;2023-07-30T14:49:34;4.43;;;1.13;;
9420;SDS011;4749;51.398;5.466;2023-07-30T14:52:01;5.20;;;1.40;;
9420;SDS011;4749;51.398;5.466;2023-07-30T14:54:29;3.90;;;1.10;;
9420;SDS011;4749;51.398;5.466;2023-07-30T14:56:56;5.30;;;1.10;;
9420;SDS011;4749;51.398;5.466;2023-07-30T14:59:23;5.28;;;1.13;;
9420;SDS011;4749;51.398;5.466;2023-07-30T15:01:51;3.20;;;1.08;;
9420;SDS011;4749;51.398;5.466;2023-07-30T15:04:18;5.45;;;0.93;;
9420;SDS011;4749;51.398;5.466;2023-07-30T15:06:46;5.32;;;1.25;;
9420;SDS011;4749;51.398;5.466;2023-07-30T15:09:13;4.90;;;1.02;;
9420;SDS011;4749;51.398;5.466;2023-07-30T15:11:41;2.90;;;1.05;;
9420;SDS011;4749;51.398;5.466;2023-07-30T15:14:08;3.80;;;1.00;;
9420;SDS011;4749;51.398;5.466;2023-07-30T15:16:35;5.88;;;1.55;;
9420;SDS011;4749;51.398;5.466;2023-07-30T15:19:03;2.70;;;1.05;;
9420;SDS011;4749;51.398;5.466;2023-07-30T15:21:30;4.65;;;1.38;;
9420;SDS011;4749;51.398;5.466;2023-07-30T15:23:57;6.40;;;1.30;;
9420;SDS011;4749;51.398;5.466;2023-07-30T15:26:25;5.32;;;1.02;;
9420;SDS011;4749;51.398;5.466;2023-07-30T15:28:52;6.70;;;1.38;;
9420;SDS011;4749;51.398;5.466;2023-07-30T15:31:19;3.95;;;1.20;;
9420;SDS011;4749;51.398;5.466;2023-07-30T15:33:47;5.15;;;1.63;;
9420;SDS011;4749;51.398;5.466;2023-07-30T15:36:14;4.13;;;1.27;;